Aqua Ramon, Colorado
Current Conditions -  °F | °C
As of 2:52 AM on Thursday 29 Jan 2015 (Local Time) from KALS Reporting Station
Clear Clear  
Wind Chill: 17°   Ceiling: Unl
Heat Index: 23°   Visibility: 10mi
Dew Point: 17°   Wind: 5mph
Humidity: 78%   Direction: 230°SW
Pressure: 30.34"   Gusts: NA
Location:  37.6359°N, 106.449°W
Report Text: KALS 290952Z AUTO 23004KT 10SM CLR M05/M08 A3034 RMK AO2 SLP264 T10501083
Loading
Personal Weather Stations






























Interactive Weather Map New forecast layout! Learn more

10-Day Weather Forecast

Advertisements
Track Severe Weather on mobile